sensor_id;sensor_type;location;lat;lon;timestamp;temperature;humidity
13256;DHT22;37913;48.370;10.930;2023-01-19T00:00:02;-0.80;1.00
13256;DHT22;37913;48.370;10.930;2023-01-19T00:02:29;-0.80;1.00
13256;DHT22;37913;48.370;10.930;2023-01-19T00:04:56;-0.70;1.00
13256;DHT22;37913;48.370;10.930;2023-01-19T00:07:25;-0.80;1.00
13256;DHT22;37913;48.370;10.930;2023-01-19T00:09:52;-0.80;1.00
13256;DHT22;37913;48.370;10.930;2023-01-19T00:12:19;-0.80;1.00
13256;DHT22;37913;48.370;10.930;2023-01-19T00:14:46;-0.80;1.00
13256;DHT22;37913;48.370;10.930;2023-01-19T00:17:13;-0.80;1.00
13256;DHT22;37913;48.370;10.930;2023-01-19T00:19:40;-0.70;1.00
13256;DHT22;37913;48.370;10.930;2023-01-19T00:22:07;-0.80;1.00
13256;DHT22;37913;48.370;10.930;2023-01-19T00:24:35;-0.80;1.00
13256;DHT22;37913;48.370;10.930;2023-01-19T00:27:02;-0.80;1.00
13256;DHT22;37913;48.370;10.930;2023-01-19T00:29:29;-0.80;1.00
13256;DHT22;37913;48.370;10.930;2023-01-19T00:31:58;1.90;1.00
13256;DHT22;37913;48.370;10.930;2023-01-19T00:34:25;-0.80;1.00
13256;DHT22;37913;48.370;10.930;2023-01-19T00:37:01;-0.80;1.00
13256;DHT22;37913;48.370;10.930;2023-01-19T00:39:28;-0.80;1.00
13256;DHT22;37913;48.370;10.930;2023-01-19T00:41:57;1.90;1.00
13256;DHT22;37913;48.370;10.930;2023-01-19T00:44:41;-0.80;1.00
13256;DHT22;37913;48.370;10.930;2023-01-19T00:47:08;-0.70;1.00
13256;DHT22;37913;48.370;10.930;2023-01-19T00:49:35;-0.80;1.00
13256;DHT22;37913;48.370;10.930;2023-01-19T00:52:02;-0.80;1.00
13256;DHT22;37913;48.370;10.930;2023-01-19T00:54:28;-0.80;1.00
13256;DHT22;37913;48.370;10.930;2023-01-19T00:56:57;0.00;1.00
13256;DHT22;37913;48.370;10.930;2023-01-19T00:59:24;-0.70;1.00
13256;DHT22;37913;48.370;10.930;2023-01-19T01:01:51;-0.90;1.00
13256;DHT22;37913;48.370;10.930;2023-01-19T01:04:18;-0.80;1.00
13256;DHT22;37913;48.370;10.930;2023-01-19T01:06:45;-0.50;1.00
13256;DHT22;37913;48.370;10.930;2023-01-19T01:09:12;-0.90;1.00
13256;DHT22;37913;48.370;10.930;2023-01-19T01:11:39;-0.90;1.00
13256;DHT22;37913;48.370;10.930;2023-01-19T01:14:08;-0.90;1.00
13256;DHT22;37913;48.370;10.930;2023-01-19T01:16:35;-0.90;1.00
13256;DHT22;37913;48.370;10.930;2023-01-19T01:19:02;-0.90;1.00
13256;DHT22;37913;48.370;10.930;2023-01-19T01:21:29;-0.90;1.00
13256;DHT22;37913;48.370;10.930;2023-01-19T01:23:59;-0.90;1.00
13256;DHT22;37913;48.370;10.930;2023-01-19T01:26:26;-0.90;1.00
13256;DHT22;37913;48.370;10.930;2023-01-19T01:28:52;-0.50;1.00
13256;DHT22;37913;48.370;10.930;2023-01-19T01:31:21;-0.90;1.00
13256;DHT22;37913;48.370;10.930;2023-01-19T01:33:48;0.10;1.00
13256;DHT22;37913;48.370;10.930;2023-01-19T01:36:15;-0.90;1.00
13256;DHT22;37913;48.370;10.930;2023-01-19T01:38:43;-0.90;99.90
13256;DHT22;37913;48.370;10.930;2023-01-19T01:41:11;-0.90;99.90
13256;DHT22;37913;48.370;10.930;2023-01-19T01:43:43;-0.90;1.00
13256;DHT22;37913;48.370;10.930;2023-01-19T01:46:10;-0.90;99.90
13256;DHT22;37913;48.370;10.930;2023-01-19T01:48:53;-0.90;99.90
13256;DHT22;37913;48.370;10.930;2023-01-19T01:51:24;-0.90;99.90
13256;DHT22;37913;48.370;10.930;2023-01-19T01:53:57;-0.90;99.90
13256;DHT22;37913;48.370;10.930;2023-01-19T01:56:29;-0.90;99.90
13256;DHT22;37913;48.370;10.930;2023-01-19T01:58:58;-0.90;93.30
13256;DHT22;37913;48.370;10.930;2023-01-19T02:01:28;-0.30;1.00
13256;DHT22;37913;48.370;10.930;2023-01-19T02:04:14;-0.90;1.00
13256;DHT22;37913;48.370;10.930;2023-01-19T02:06:41;-0.90;99.90
13256;DHT22;37913;48.370;10.930;2023-01-19T02:09:27;-0.40;99.90
13256;DHT22;37913;48.370;10.930;2023-01-19T02:12:12;-0.90;99.90
13256;DHT22;37913;48.370;10.930;2023-01-19T02:14:57;-1.00;1.00
13256;DHT22;37913;48.370;10.930;2023-01-19T02:17:25;-1.00;1.00
13256;DHT22;37913;48.370;10.930;2023-01-19T02:19:53;-1.00;1.00
13256;DHT22;37913;48.370;10.930;2023-01-19T02:22:28;-1.00;1.00
13256;DHT22;37913;48.370;10.930;2023-01-19T02:25:02;-1.00;99.90
13256;DHT22;37913;48.370;10.930;2023-01-19T02:27:30;-1.00;99.90
13256;DHT22;37913;48.370;10.930;2023-01-19T02:29:57;-1.00;1.00
13256;DHT22;37913;48.370;10.930;2023-01-19T02:32:25;-0.70;1.00
13256;DHT22;37913;48.370;10.930;2023-01-19T02:34:54;-1.10;1.00
13256;DHT22;37913;48.370;10.930;2023-01-19T02:37:21;-1.10;1.00
13256;DHT22;37913;48.370;10.930;2023-01-19T02:39:51;-1.10;1.00
13256;DHT22;37913;48.370;10.930;2023-01-19T02:42:23;-1.10;99.90
13256;DHT22;37913;48.370;10.930;2023-01-19T02:44:53;-1.10;9.60
13256;DHT22;37913;48.370;10.930;2023-01-19T02:47:20;-1.10;1.00
13256;DHT22;37913;48.370;10.930;2023-01-19T02:49:54;-1.10;1.00
13256;DHT22;37913;48.370;10.930;2023-01-19T02:52:21;-1.10;99.90
13256;DHT22;37913;48.370;10.930;2023-01-19T02:54:59;-1.30;1.00
13256;DHT22;37913;48.370;10.930;2023-01-19T02:57:52;-1.30;1.00
13256;DHT22;37913;48.370;10.930;2023-01-19T03:00:30;-1.20;99.90
13256;DHT22;37913;48.370;10.930;2023-01-19T03:03:11;-1.20;99.90
13256;DHT22;37913;48.370;10.930;2023-01-19T03:05:53;-1.20;1.00
13256;DHT22;37913;48.370;10.930;2023-01-19T03:08:30;-1.20;99.90
13256;DHT22;37913;48.370;10.930;2023-01-19T03:11:02;-1.20;1.00
13256;DHT22;37913;48.370;10.930;2023-01-19T03:13:36;-1.20;1.00
13256;DHT22;37913;48.370;10.930;2023-01-19T03:16:11;-0.40;1.00
13256;DHT22;37913;48.370;10.930;2023-01-19T03:18:42;-1.20;99.90
13256;DHT22;37913;48.370;10.930;2023-01-19T03:21:12;-1.30;99.90
13256;DHT22;37913;48.370;10.930;2023-01-19T03:23:41;-1.50;1.00
13256;DHT22;37913;48.370;10.930;2023-01-19T03:26:15;-1.30;99.90
13256;DHT22;37913;48.370;10.930;2023-01-19T03:28:45;-1.60;99.90
13256;DHT22;37913;48.370;10.930;2023-01-19T03:31:15;-1.60;99.90
13256;DHT22;37913;48.370;10.930;2023-01-19T03:33:46;-1.50;1.00
13256;DHT22;37913;48.370;10.930;2023-01-19T03:36:17;-1.30;1.00
13256;DHT22;37913;48.370;10.930;2023-01-19T03:38:46;-1.40;99.90
13256;DHT22;37913;48.370;10.930;2023-01-19T03:41:16;-1.70;99.90
13256;DHT22;37913;48.370;10.930;2023-01-19T03:43:46;-2.00;99.90
13256;DHT22;37913;48.370;10.930;2023-01-19T03:46:14;-1.30;1.00
13256;DHT22;37913;48.370;10.930;2023-01-19T03:48:43;-2.00;99.90
13256;DHT22;37913;48.370;10.930;2023-01-19T03:51:11;-2.00;95.00
13256;DHT22;37913;48.370;10.930;2023-01-19T03:53:39;-2.10;99.90
13256;DHT22;37913;48.370;10.930;2023-01-19T03:56:15;-2.10;99.90
13256;DHT22;37913;48.370;10.930;2023-01-19T03:58:43;-2.20;99.90
13256;DHT22;37913;48.370;10.930;2023-01-19T04:01:11;-2.30;99.90
13256;DHT22;37913;48.370;10.930;2023-01-19T04:03:38;-2.20;99.90
13256;DHT22;37913;48.370;10.930;2023-01-19T04:06:06;-1.50;99.90
13256;DHT22;37913;48.370;10.930;2023-01-19T04:08:34;-2.40;99.90
13256;DHT22;37913;48.370;10.930;2023-01-19T04:11:01;-2.40;1.00
13256;DHT22;37913;48.370;10.930;2023-01-19T04:13:28;-2.10;1.00
13256;DHT22;37913;48.370;10.930;2023-01-19T04:15:58;-2.40;1.00
13256;DHT22;37913;48.370;10.930;2023-01-19T04:18:27;-2.40;1.00
13256;DHT22;37913;48.370;10.930;2023-01-19T04:20:54;-2.50;1.00
13256;DHT22;37913;48.370;10.930;2023-01-19T04:23:21;-2.60;1.00
13256;DHT22;37913;48.370;10.930;2023-01-19T04:25:48;-1.50;1.00
13256;DHT22;37913;48.370;10.930;2023-01-19T04:28:15;-2.70;1.00
13256;DHT22;37913;48.370;10.930;2023-01-19T04:30:42;-2.20;1.00
13256;DHT22;37913;48.370;10.930;2023-01-19T04:33:09;-1.60;1.00
13256;DHT22;37913;48.370;10.930;2023-01-19T04:35:37;-2.60;1.00
13256;DHT22;37913;48.370;10.930;2023-01-19T04:38:04;-2.60;1.00
13256;DHT22;37913;48.370;10.930;2023-01-19T04:40:31;-2.60;1.00
13256;DHT22;37913;48.370;10.930;2023-01-19T04:42:57;-2.40;1.00
13256;DHT22;37913;48.370;10.930;2023-01-19T04:45:24;-2.50;1.00
13256;DHT22;37913;48.370;10.930;2023-01-19T04:47:51;-2.10;1.00
13256;DHT22;37913;48.370;10.930;2023-01-19T04:50:18;-2.50;1.00
13256;DHT22;37913;48.370;10.930;2023-01-19T04:52:47;-2.40;1.00
13256;DHT22;37913;48.370;10.930;2023-01-19T04:55:14;-1.10;1.00
13256;DHT22;37913;48.370;10.930;2023-01-19T04:57:41;-1.30;1.00
13256;DHT22;37913;48.370;10.930;2023-01-19T05:00:09;-0.90;1.00
13256;DHT22;37913;48.370;10.930;2023-01-19T05:02:36;-2.40;1.00
13256;DHT22;37913;48.370;10.930;2023-01-19T05:05:04;-2.50;1.00
13256;DHT22;37913;48.370;10.930;2023-01-19T05:07:31;-2.60;1.00
13256;DHT22;37913;48.370;10.930;2023-01-19T05:09:59;-1.70;1.00
13256;DHT22;37913;48.370;10.930;2023-01-19T05:12:26;-2.60;1.00
13256;DHT22;37913;48.370;10.930;2023-01-19T05:14:53;-2.70;1.00
13256;DHT22;37913;48.370;10.930;2023-01-19T05:17:20;-2.70;1.00
13256;DHT22;37913;48.370;10.930;2023-01-19T05:19:47;-2.80;1.00
13256;DHT22;37913;48.370;10.930;2023-01-19T05:22:14;-2.50;1.00
13256;DHT22;37913;48.370;10.930;2023-01-19T05:24:41;-3.00;1.00
13256;DHT22;37913;48.370;10.930;2023-01-19T05:27:10;-2.90;1.00
13256;DHT22;37913;48.370;10.930;2023-01-19T05:29:37;-2.70;1.00
13256;DHT22;37913;48.370;10.930;2023-01-19T05:32:04;-2.90;1.00
13256;DHT22;37913;48.370;10.930;2023-01-19T05:34:31;-3.00;1.00
13256;DHT22;37913;48.370;10.930;2023-01-19T05:36:58;-2.80;1.00
13256;DHT22;37913;48.370;10.930;2023-01-19T05:39:25;-2.90;1.00
13256;DHT22;37913;48.370;10.930;2023-01-19T05:41:52;-2.90;1.00
13256;DHT22;37913;48.370;10.930;2023-01-19T05:44:20;-3.00;1.00
13256;DHT22;37913;48.370;10.930;2023-01-19T05:46:47;-2.90;1.00
13256;DHT22;37913;48.370;10.930;2023-01-19T05:49:14;-3.10;1.00
13256;DHT22;37913;48.370;10.930;2023-01-19T05:51:41;-3.30;1.00
13256;DHT22;37913;48.370;10.930;2023-01-19T05:54:11;-3.10;1.00
13256;DHT22;37913;48.370;10.930;2023-01-19T05:56:39;-2.90;1.00
13256;DHT22;37913;48.370;10.930;2023-01-19T05:59:06;-2.90;1.00
13256;DHT22;37913;48.370;10.930;2023-01-19T06:01:36;-3.00;1.00
13256;DHT22;37913;48.370;10.930;2023-01-19T06:04:04;-3.00;1.00
13256;DHT22;37913;48.370;10.930;2023-01-19T06:06:31;-2.90;1.00
13256;DHT22;37913;48.370;10.930;2023-01-19T06:08:58;-3.00;1.00
13256;DHT22;37913;48.370;10.930;2023-01-19T06:11:25;-2.90;1.00
13256;DHT22;37913;48.370;10.930;2023-01-19T06:13:52;-3.10;1.00
13256;DHT22;37913;48.370;10.930;2023-01-19T06:16:19;-3.10;1.00
13256;DHT22;37913;48.370;10.930;2023-01-19T06:18:48;-3.00;1.00
13256;DHT22;37913;48.370;10.930;2023-01-19T06:21:15;-2.10;1.00
13256;DHT22;37913;48.370;10.930;2023-01-19T06:23:42;-1.90;1.00
13256;DHT22;37913;48.370;10.930;2023-01-19T06:26:09;-3.10;1.00
13256;DHT22;37913;48.370;10.930;2023-01-19T06:28:44;-2.00;1.00
13256;DHT22;37913;48.370;10.930;2023-01-19T06:31:13;-3.00;1.00
13256;DHT22;37913;48.370;10.930;2023-01-19T06:33:40;-2.20;1.00
13256;DHT22;37913;48.370;10.930;2023-01-19T06:36:08;-2.00;1.00
13256;DHT22;37913;48.370;10.930;2023-01-19T06:38:35;-3.10;1.00
13256;DHT22;37913;48.370;10.930;2023-01-19T06:41:02;-2.60;1.00
13256;DHT22;37913;48.370;10.930;2023-01-19T06:43:32;-2.60;1.00
13256;DHT22;37913;48.370;10.930;2023-01-19T06:45:59;-2.60;1.00
13256;DHT22;37913;48.370;10.930;2023-01-19T06:48:27;-3.40;1.00
13256;DHT22;37913;48.370;10.930;2023-01-19T06:50:54;-2.40;1.00
13256;DHT22;37913;48.370;10.930;2023-01-19T06:53:22;-3.40;1.00
13256;DHT22;37913;48.370;10.930;2023-01-19T06:55:57;-2.60;1.00
13256;DHT22;37913;48.370;10.930;2023-01-19T06:58:24;-2.40;1.00
13256;DHT22;37913;48.370;10.930;2023-01-19T07:00:51;-2.40;1.00
13256;DHT22;37913;48.370;10.930;2023-01-19T07:03:20;-2.30;1.00
13256;DHT22;37913;48.370;10.930;2023-01-19T07:05:50;-2.10;1.00
13256;DHT22;37913;48.370;10.930;2023-01-19T07:08:19;-3.20;1.00
13256;DHT22;37913;48.370;10.930;2023-01-19T07:10:47;-3.30;1.00
13256;DHT22;37913;48.370;10.930;2023-01-19T07:13:14;-1.80;1.00
13256;DHT22;37913;48.370;10.930;2023-01-19T07:15:47;-3.10;1.00
13256;DHT22;37913;48.370;10.930;2023-01-19T07:18:14;-2.50;1.00
13256;DHT22;37913;48.370;10.930;2023-01-19T07:20:41;-3.10;1.00
13256;DHT22;37913;48.370;10.930;2023-01-19T07:23:09;-3.10;1.00
13256;DHT22;37913;48.370;10.930;2023-01-19T07:25:36;-3.10;1.00
13256;DHT22;37913;48.370;10.930;2023-01-19T07:28:08;-2.90;1.00
13256;DHT22;37913;48.370;10.930;2023-01-19T07:30:37;-2.00;99.90
13256;DHT22;37913;48.370;10.930;2023-01-19T07:33:04;-2.90;99.90
13256;DHT22;37913;48.370;10.930;2023-01-19T07:35:33;0.50;99.90
13256;DHT22;37913;48.370;10.930;2023-01-19T07:38:00;-2.00;1.00
13256;DHT22;37913;48.370;10.930;2023-01-19T07:40:27;-2.70;1.00
13256;DHT22;37913;48.370;10.930;2023-01-19T07:42:54;-2.70;1.00
13256;DHT22;37913;48.370;10.930;2023-01-19T07:45:22;-2.70;1.00
13256;DHT22;37913;48.370;10.930;2023-01-19T07:47:49;-2.60;99.90
13256;DHT22;37913;48.370;10.930;2023-01-19T07:50:17;-2.50;1.00
13256;DHT22;37913;48.370;10.930;2023-01-19T07:52:46;-2.30;1.00
13256;DHT22;37913;48.370;10.930;2023-01-19T07:55:15;-2.30;99.90
13256;DHT22;37913;48.370;10.930;2023-01-19T07:57:42;-2.10;99.90
13256;DHT22;37913;48.370;10.930;2023-01-19T08:00:10;-1.20;99.90
13256;DHT22;37913;48.370;10.930;2023-01-19T08:02:40;-1.80;1.00
13256;DHT22;37913;48.370;10.930;2023-01-19T08:05:07;-1.60;99.90
13256;DHT22;37913;48.370;10.930;2023-01-19T08:07:35;-1.20;99.90
13256;DHT22;37913;48.370;10.930;2023-01-19T08:10:02;-1.10;99.90
13256;DHT22;37913;48.370;10.930;2023-01-19T08:12:29;-1.20;99.90
13256;DHT22;37913;48.370;10.930;2023-01-19T08:14:59;-1.20;99.90
13256;DHT22;37913;48.370;10.930;2023-01-19T08:17:26;-1.20;1.00
13256;DHT22;37913;48.370;10.930;2023-01-19T08:19:56;-1.20;1.00
13256;DHT22;37913;48.370;10.930;2023-01-19T08:22:22;-1.20;99.90
13256;DHT22;37913;48.370;10.930;2023-01-19T08:24:49;-1.60;1.00
13256;DHT22;37913;48.370;10.930;2023-01-19T08:27:17;-1.50;1.00
13256;DHT22;37913;48.370;10.930;2023-01-19T08:29:44;-0.90;1.00
13256;DHT22;37913;48.370;10.930;2023-01-19T08:32:11;-1.50;99.90
13256;DHT22;37913;48.370;10.930;2023-01-19T08:34:41;-1.20;1.00
13256;DHT22;37913;48.370;10.930;2023-01-19T08:37:09;-1.20;99.90
13256;DHT22;37913;48.370;10.930;2023-01-19T08:39:37;-0.80;1.00
13256;DHT22;37913;48.370;10.930;2023-01-19T08:42:04;-0.70;1.00
13256;DHT22;37913;48.370;10.930;2023-01-19T08:44:31;-0.60;1.00
13256;DHT22;37913;48.370;10.930;2023-01-19T08:46:58;-0.70;1.00
13256;DHT22;37913;48.370;10.930;2023-01-19T08:49:25;-0.30;1.00
13256;DHT22;37913;48.370;10.930;2023-01-19T08:51:52;0.30;99.90
13256;DHT22;37913;48.370;10.930;2023-01-19T08:54:20;0.90;99.90
13256;DHT22;37913;48.370;10.930;2023-01-19T08:56:48;1.00;99.90
13256;DHT22;37913;48.370;10.930;2023-01-19T08:59:15;0.90;99.90
13256;DHT22;37913;48.370;10.930;2023-01-19T09:01:44;1.50;99.90
13256;DHT22;37913;48.370;10.930;2023-01-19T09:04:11;2.90;99.90
13256;DHT22;37913;48.370;10.930;2023-01-19T09:06:38;1.90;99.90
13256;DHT22;37913;48.370;10.930;2023-01-19T09:09:08;2.40;99.90
13256;DHT22;37913;48.370;10.930;2023-01-19T09:11:36;1.60;99.90
13256;DHT22;37913;48.370;10.930;2023-01-19T09:14:10;1.60;99.90
13256;DHT22;37913;48.370;10.930;2023-01-19T09:16:39;1.90;99.90
13256;DHT22;37913;48.370;10.930;2023-01-19T09:19:06;2.70;99.90
13256;DHT22;37913;48.370;10.930;2023-01-19T09:21:40;2.30;99.90
13256;DHT22;37913;48.370;10.930;2023-01-19T09:24:07;2.80;99.90
13256;DHT22;37913;48.370;10.930;2023-01-19T09:26:35;3.30;99.90
13256;DHT22;37913;48.370;10.930;2023-01-19T09:29:05;3.40;99.90
13256;DHT22;37913;48.370;10.930;2023-01-19T09:31:34;2.30;99.90
13256;DHT22;37913;48.370;10.930;2023-01-19T09:34:01;2.30;99.90
13256;DHT22;37913;48.370;10.930;2023-01-19T09:36:27;4.40;99.90
13256;DHT22;37913;48.370;10.930;2023-01-19T09:38:54;4.70;99.90
13256;DHT22;37913;48.370;10.930;2023-01-19T09:41:21;6.70;99.90
13256;DHT22;37913;48.370;10.930;2023-01-19T09:43:54;8.40;99.90
13256;DHT22;37913;48.370;10.930;2023-01-19T09:46:27;9.10;99.90
13256;DHT22;37913;48.370;10.930;2023-01-19T09:48:57;11.20;97.20
13256;DHT22;37913;48.370;10.930;2023-01-19T09:51:27;11.50;97.60
13256;DHT22;37913;48.370;10.930;2023-01-19T09:54:05;13.40;93.10
13256;DHT22;37913;48.370;10.930;2023-01-19T09:56:35;9.70;93.50
13256;DHT22;37913;48.370;10.930;2023-01-19T09:59:18;8.80;95.40
13256;DHT22;37913;48.370;10.930;2023-01-19T10:01:58;10.50;93.80
13256;DHT22;37913;48.370;10.930;2023-01-19T10:04:33;7.50;96.50
13256;DHT22;37913;48.370;10.930;2023-01-19T10:07:10;8.90;97.80
13256;DHT22;37913;48.370;10.930;2023-01-19T10:09:56;9.60;96.50
13256;DHT22;37913;48.370;10.930;2023-01-19T10:12:42;10.40;95.10
13256;DHT22;37913;48.370;10.930;2023-01-19T10:15:20;8.90;94.50
13256;DHT22;37913;48.370;10.930;2023-01-19T10:18:01;10.40;95.10
13256;DHT22;37913;48.370;10.930;2023-01-19T10:20:36;12.10;91.50
13256;DHT22;37913;48.370;10.930;2023-01-19T10:23:22;11.40;91.40
13256;DHT22;37913;48.370;10.930;2023-01-19T10:25:53;10.50;90.10
13256;DHT22;37913;48.370;10.930;2023-01-19T10:28:23;10.20;91.30
13256;DHT22;37913;48.370;10.930;2023-01-19T10:30:53;9.10;92.80
13256;DHT22;37913;48.370;10.930;2023-01-19T10:33:20;12.20;91.80
13256;DHT22;37913;48.370;10.930;2023-01-19T10:35:47;12.20;90.80
13256;DHT22;37913;48.370;10.930;2023-01-19T10:38:16;13.50;88.50
13256;DHT22;37913;48.370;10.930;2023-01-19T10:40:52;14.20;86.60
13256;DHT22;37913;48.370;10.930;2023-01-19T10:43:35;14.00;83.50
13256;DHT22;37913;48.370;10.930;2023-01-19T10:46:07;10.80;86.60
13256;DHT22;37913;48.370;10.930;2023-01-19T10:48:40;13.20;87.20
13256;DHT22;37913;48.370;10.930;2023-01-19T10:51:09;16.00;81.00
13256;DHT22;37913;48.370;10.930;2023-01-19T10:53:36;16.80;76.70
13256;DHT22;37913;48.370;10.930;2023-01-19T10:56:15;16.80;75.10
13256;DHT22;37913;48.370;10.930;2023-01-19T10:58:43;17.10;73.40
13256;DHT22;37913;48.370;10.930;2023-01-19T11:01:17;16.20;73.30
13256;DHT22;37913;48.370;10.930;2023-01-19T11:03:44;14.50;74.50
13256;DHT22;37913;48.370;10.930;2023-01-19T11:06:27;13.30;77.50
13256;DHT22;37913;48.370;10.930;2023-01-19T11:09:10;11.20;77.10
13256;DHT22;37913;48.370;10.930;2023-01-19T11:11:47;9.20;86.60
13256;DHT22;37913;48.370;10.930;2023-01-19T11:14:18;10.70;83.30
13256;DHT22;37913;48.370;10.930;2023-01-19T11:16:50;9.00;85.90
13256;DHT22;37913;48.370;10.930;2023-01-19T11:19:27;9.10;85.00
13256;DHT22;37913;48.370;10.930;2023-01-19T11:22:09;11.50;84.40
13256;DHT22;37913;48.370;10.930;2023-01-19T11:24:38;11.40;84.70
13256;DHT22;37913;48.370;10.930;2023-01-19T11:27:05;12.40;84.10
13256;DHT22;37913;48.370;10.930;2023-01-19T11:29:32;15.10;80.50
13256;DHT22;37913;48.370;10.930;2023-01-19T11:32:11;16.50;75.00
13256;DHT22;37913;48.370;10.930;2023-01-19T11:34:38;16.20;73.40
13256;DHT22;37913;48.370;10.930;2023-01-19T11:37:25;15.10;73.90
13256;DHT22;37913;48.370;10.930;2023-01-19T11:39:54;13.90;75.60
13256;DHT22;37913;48.370;10.930;2023-01-19T11:42:22;14.40;73.40
13256;DHT22;37913;48.370;10.930;2023-01-19T11:44:57;15.10;72.50
13256;DHT22;37913;48.370;10.930;2023-01-19T11:47:27;12.20;72.80
13256;DHT22;37913;48.370;10.930;2023-01-19T11:49:58;11.30;75.20
13256;DHT22;37913;48.370;10.930;2023-01-19T11:52:31;11.30;76.30
13256;DHT22;37913;48.370;10.930;2023-01-19T11:55:04;11.10;76.30
13256;DHT22;37913;48.370;10.930;2023-01-19T11:57:32;10.80;77.30
13256;DHT22;37913;48.370;10.930;2023-01-19T12:00:02;9.20;79.70
13256;DHT22;37913;48.370;10.930;2023-01-19T12:02:41;9.80;80.40
13256;DHT22;37913;48.370;10.930;2023-01-19T12:05:12;10.80;79.80
13256;DHT22;37913;48.370;10.930;2023-01-19T12:07:42;10.90;77.80
13256;DHT22;37913;48.370;10.930;2023-01-19T12:10:19;11.40;77.70
13256;DHT22;37913;48.370;10.930;2023-01-19T12:12:47;11.60;76.10
13256;DHT22;37913;48.370;10.930;2023-01-19T12:15:20;10.70;80.00
13256;DHT22;37913;48.370;10.930;2023-01-19T12:17:53;10.80;79.60
13256;DHT22;37913;48.370;10.930;2023-01-19T12:20:26;10.00;79.20
13256;DHT22;37913;48.370;10.930;2023-01-19T12:23:02;7.60;82.80
13256;DHT22;37913;48.370;10.930;2023-01-19T12:25:43;7.80;87.80
13256;DHT22;37913;48.370;10.930;2023-01-19T12:28:14;8.40;85.70
13256;DHT22;37913;48.370;10.930;2023-01-19T12:30:47;7.30;87.70
13256;DHT22;37913;48.370;10.930;2023-01-19T12:33:34;7.00;87.50
13256;DHT22;37913;48.370;10.930;2023-01-19T12:36:08;6.20;90.20
13256;DHT22;37913;48.370;10.930;2023-01-19T12:38:45;5.80;91.10
13256;DHT22;37913;48.370;10.930;2023-01-19T12:41:26;5.60;92.20
13256;DHT22;37913;48.370;10.930;2023-01-19T12:44:14;5.80;93.00
13256;DHT22;37913;48.370;10.930;2023-01-19T12:46:44;6.20;92.00
13256;DHT22;37913;48.370;10.930;2023-01-19T12:49:21;6.30;92.40
13256;DHT22;37913;48.370;10.930;2023-01-19T12:51:50;6.10;91.90
13256;DHT22;37913;48.370;10.930;2023-01-19T12:54:21;5.50;92.80
13256;DHT22;37913;48.370;10.930;2023-01-19T12:56:56;5.20;93.20
13256;DHT22;37913;48.370;10.930;2023-01-19T12:59:25;5.10;93.70
13256;DHT22;37913;48.370;10.930;2023-01-19T13:02:29;5.10;94.30
13256;DHT22;37913;48.370;10.930;2023-01-19T13:05:15;3.40;95.90
13256;DHT22;37913;48.370;10.930;2023-01-19T13:11:18;3.30;97.20
13256;DHT22;37913;48.370;10.930;2023-01-19T13:17:03;2.50;98.10
13256;DHT22;37913;48.370;10.930;2023-01-19T13:19:46;2.70;99.00
13256;DHT22;37913;48.370;10.930;2023-01-19T13:25:29;4.00;97.40
13256;DHT22;37913;48.370;10.930;2023-01-19T13:28:01;5.00;97.00
13256;DHT22;37913;48.370;10.930;2023-01-19T13:30:34;7.60;94.20
13256;DHT22;37913;48.370;10.930;2023-01-19T13:33:11;7.20;91.50
13256;DHT22;37913;48.370;10.930;2023-01-19T13:35:49;5.70;93.80
13256;DHT22;37913;48.370;10.930;2023-01-19T13:38:16;4.80;95.60
13256;DHT22;37913;48.370;10.930;2023-01-19T13:40:46;4.60;96.50
13256;DHT22;37913;48.370;10.930;2023-01-19T13:43:17;4.00;96.30
13256;DHT22;37913;48.370;10.930;2023-01-19T13:45:47;3.90;97.60
13256;DHT22;37913;48.370;10.930;2023-01-19T13:48:18;4.00;97.70
13256;DHT22;37913;48.370;10.930;2023-01-19T13:51:05;3.80;97.70
13256;DHT22;37913;48.370;10.930;2023-01-19T13:53:33;3.10;98.70
13256;DHT22;37913;48.370;10.930;2023-01-19T13:56:19;3.30;98.90
13256;DHT22;37913;48.370;10.930;2023-01-19T13:59:06;3.70;98.10
13256;DHT22;37913;48.370;10.930;2023-01-19T14:01:37;3.20;98.70
13256;DHT22;37913;48.370;10.930;2023-01-19T14:04:05;2.80;99.30
13256;DHT22;37913;48.370;10.930;2023-01-19T14:06:35;2.80;99.90
13256;DHT22;37913;48.370;10.930;2023-01-19T14:09:15;2.20;99.90
13256;DHT22;37913;48.370;10.930;2023-01-19T14:11:46;2.00;99.90
13256;DHT22;37913;48.370;10.930;2023-01-19T14:14:24;2.10;99.90
13256;DHT22;37913;48.370;10.930;2023-01-19T14:16:51;2.00;99.90
13256;DHT22;37913;48.370;10.930;2023-01-19T14:19:18;1.70;99.90
13256;DHT22;37913;48.370;10.930;2023-01-19T14:21:45;1.60;99.90
13256;DHT22;37913;48.370;10.930;2023-01-19T14:24:22;1.60;99.90
13256;DHT22;37913;48.370;10.930;2023-01-19T14:27:18;1.70;99.90
13256;DHT22;37913;48.370;10.930;2023-01-19T14:29:47;1.80;99.90
13256;DHT22;37913;48.370;10.930;2023-01-19T14:32:17;1.90;99.90
13256;DHT22;37913;48.370;10.930;2023-01-19T14:34:47;3.30;99.90
13256;DHT22;37913;48.370;10.930;2023-01-19T14:37:17;1.90;99.90
13256;DHT22;37913;48.370;10.930;2023-01-19T14:39:47;1.80;99.90
13256;DHT22;37913;48.370;10.930;2023-01-19T14:42:22;1.50;99.90
13256;DHT22;37913;48.370;10.930;2023-01-19T14:44:51;1.40;99.90
13256;DHT22;37913;48.370;10.930;2023-01-19T14:47:32;1.40;99.90
13256;DHT22;37913;48.370;10.930;2023-01-19T14:50:04;1.20;99.90
13256;DHT22;37913;48.370;10.930;2023-01-19T14:52:37;1.20;99.90
13256;DHT22;37913;48.370;10.930;2023-01-19T14:55:07;1.20;99.90
13256;DHT22;37913;48.370;10.930;2023-01-19T14:57:43;1.00;99.90
13256;DHT22;37913;48.370;10.930;2023-01-19T15:00:13;0.90;99.90
13256;DHT22;37913;48.370;10.930;2023-01-19T15:02:43;0.80;99.90
13256;DHT22;37913;48.370;10.930;2023-01-19T15:05:19;0.70;99.90
13256;DHT22;37913;48.370;10.930;2023-01-19T15:07:46;0.70;99.90
13256;DHT22;37913;48.370;10.930;2023-01-19T15:10:17;2.60;99.90
13256;DHT22;37913;48.370;10.930;2023-01-19T15:12:48;0.70;99.90
13256;DHT22;37913;48.370;10.930;2023-01-19T15:15:17;0.50;99.90
13256;DHT22;37913;48.370;10.930;2023-01-19T15:17:49;0.50;99.90
13256;DHT22;37913;48.370;10.930;2023-01-19T15:20:20;0.50;99.90
13256;DHT22;37913;48.370;10.930;2023-01-19T15:22:47;0.50;99.90
13256;DHT22;37913;48.370;10.930;2023-01-19T15:25:15;0.50;99.90
13256;DHT22;37913;48.370;10.930;2023-01-19T15:27:43;0.50;99.90
13256;DHT22;37913;48.370;10.930;2023-01-19T15:30:22;0.40;99.90
13256;DHT22;37913;48.370;10.930;2023-01-19T15:32:50;0.40;99.90
13256;DHT22;37913;48.370;10.930;2023-01-19T15:35:18;0.30;99.90
13256;DHT22;37913;48.370;10.930;2023-01-19T15:37:51;0.20;99.90
13256;DHT22;37913;48.370;10.930;2023-01-19T15:40:19;0.10;99.90
13256;DHT22;37913;48.370;10.930;2023-01-19T15:42:48;0.20;99.90
13256;DHT22;37913;48.370;10.930;2023-01-19T15:45:34;0.10;99.90
13256;DHT22;37913;48.370;10.930;2023-01-19T15:48:03;0.10;99.90
13256;DHT22;37913;48.370;10.930;2023-01-19T15:50:31;-0.10;99.90
13256;DHT22;37913;48.370;10.930;2023-01-19T15:53:16;-0.10;99.90
13256;DHT22;37913;48.370;10.930;2023-01-19T15:55:43;-0.30;99.90
13256;DHT22;37913;48.370;10.930;2023-01-19T15:58:10;-0.30;99.90